Time;durP1;ratioP1;P1;durP2;ratioP2;P2;SDS_P1;SDS_P2;PMS_P1;PMS_P2;Temp;Humidity;BMP_temperature;BMP_pressure;BME280_temperature;BME280_humidity;BME280_pressure;Samples;Min_cycle;Max_cycle;Signal;HPM_P1;HPM_P2
2023/07/06 00:00:05;;;;;;;8.30;7.80;;;;;;;22.21;100.00;-8296.28;5072645;28;20189;-59
2023/07/06 00:02:32;;;;;;;7.55;7.18;;;;;;;22.30;100.00;-6997.75;5071536;28;20193;-58
2023/07/06 00:05:00;;;;;;;7.53;7.05;;;;;;;22.24;100.00;-3422.09;5071798;28;20615;-58
2023/07/06 00:07:26;;;;;;;8.52;7.90;;;;;;;22.19;100.00;-3422.09;5071517;28;20181;-58
2023/07/06 00:09:55;;;;;;;7.70;7.13;;;;;;;22.22;100.00;-2446.38;5071790;28;20575;-58
2023/07/06 00:12:23;;;;;;;7.57;7.07;;;;;;;22.13;100.00;-1145.31;5071777;28;20634;-58
2023/07/06 00:14:50;;;;;;;7.38;6.88;;;;;;;22.31;100.00;-1144.59;5071405;28;20283;-59
2023/07/06 00:17:17;;;;;;;7.05;6.38;;;;;;;22.17;100.00;1133.44;5071349;28;20220;-58
2023/07/06 00:19:46;;;;;;;7.45;7.07;;;;;;;22.36;100.00;5371.91;5071659;28;20189;-59
2023/07/06 00:22:14;;;;;;;8.18;7.47;;;;;;;22.22;100.00;3088.28;5071620;28;20216;-59
2023/07/06 00:24:46;;;;;;;9.05;7.57;;;;;;;22.12;100.00;-2121.28;5072109;28;20278;-59
2023/07/06 00:27:16;;;;;;;8.23;7.40;;;;;;;22.07;100.00;-2121.41;5071639;28;20265;-59
2023/07/06 00:29:56;;;;;;;7.70;6.90;;;;;;;21.98;100.00;-1796.38;5071258;28;20195;-59
2023/07/06 00:32:27;;;;;;;7.63;7.18;;;;;;;22.02;100.00;-2121.53;5071200;28;20278;-59
2023/07/06 00:34:54;;;;;;;7.82;7.32;;;;;;;22.03;100.00;-820.31;5071192;28;20185;-59
2023/07/06 00:37:22;;;;;;;7.78;7.20;;;;;;;21.98;100.00;-1145.84;5071053;28;20205;-58
2023/07/06 00:39:49;;;;;;;7.60;6.97;;;;;;;21.74;100.00;8622.88;5071370;28;20185;-58
2023/07/06 00:42:20;;;;;;;8.70;7.87;;;;;;;21.78;100.00;12866.44;5071494;28;20185;-59
2023/07/06 00:44:49;;;;;;;8.70;7.87;;;;;;;21.85;100.00;7972.69;5071159;28;20775;-58
2023/07/06 00:47:20;;;;;;;10.77;8.18;;;;;;;21.92;100.00;4388.03;5071898;28;20181;-59
2023/07/06 00:49:47;;;;;;;8.02;7.38;;;;;;;21.80;100.00;1781.63;5071088;28;20184;-59
2023/07/06 00:52:15;;;;;;;8.32;7.72;;;;;;;21.77;100.00;2432.34;5071008;28;20189;-59
2023/07/06 00:54:43;;;;;;;8.32;7.63;;;;;;;21.75;100.00;4060.22;5071000;28;20619;-59
2023/07/06 00:57:13;;;;;;;7.22;6.93;;;;;;;21.64;100.00;4384.53;5070903;28;20213;-58
2023/07/06 00:59:42;;;;;;;8.77;7.95;;;;;;;21.71;100.00;804.63;5070998;28;20191;-59
2023/07/06 01:02:16;;;;;;;10.55;7.05;;;;;;;21.75;100.00;-171.03;5071293;28;20223;-59
2023/07/06 01:04:44;;;;;;;8.43;7.65;;;;;;;21.82;100.00;805.44;5073600;28;20623;-59
2023/07/06 01:07:17;;;;;;;8.50;7.70;;;;;;;21.74;100.00;-171.13;5074549;28;20185;-59
2023/07/06 01:09:44;;;;;;;10.88;7.45;;;;;;;21.58;100.00;-822.25;5074482;28;20230;-61
2023/07/06 01:12:11;;;;;;;13.93;7.93;;;;;;;21.64;100.00;804.19;5074740;28;20257;-59
2023/07/06 01:14:39;;;;;;;8.25;7.63;;;;;;;21.72;100.00;-496.47;5074687;28;20181;-58
2023/07/06 01:17:14;;;;;;;8.45;7.80;;;;;;;21.66;100.00;153.69;5074597;28;20676;-59
2023/07/06 01:20:16;;;;;;;11.55;7.88;;;;;;;21.43;100.00;152.41;5074329;28;20189;-59
2023/07/06 01:23:20;;;;;;;8.38;7.68;;;;;;;21.64;100.00;804.19;5074561;28;20555;-60
2023/07/06 01:26:13;;;;;;;8.87;8.20;;;;;;;21.55;100.00;2104.84;5074993;28;20192;-59
2023/07/06 01:29:03;;;;;;;8.93;8.00;;;;;;;21.53;100.00;8944.81;5074335;28;20609;-59
2023/07/06 01:31:39;;;;;;;7.82;7.43;;;;;;;21.62;100.00;10251.28;5074444;28;20647;-59
2023/07/06 01:34:15;;;;;;;8.43;7.60;;;;;;;21.32;100.00;19060.69;5073287;28;20288;-59
2023/07/06 01:36:47;;;;;;;8.20;7.80;;;;;;;21.56;100.00;19396.34;5074956;28;20185;-59
2023/07/06 01:39:17;;;;;;;8.55;7.85;;;;;;;21.55;100.00;18741.84;5073960;28;20185;-58
2023/07/06 01:41:45;;;;;;;7.93;7.33;;;;;;;21.57;100.00;16454.00;5073904;28;20185;-58
2023/07/06 01:44:14;;;;;;;8.60;7.87;;;;;;;21.53;100.00;16452.88;5073787;28;20249;-58
2023/07/06 01:46:48;;;;;;;8.43;7.60;;;;;;;21.52;100.00;22339.94;5074124;28;20284;-60
2023/07/06 01:49:15;;;;;;;7.63;7.22;;;;;;;21.55;100.00;22341.41;5074146;28;20566;-59
2023/07/06 01:52:03;;;;;;;8.13;7.65;;;;;;;21.56;100.00;22341.84;5073763;28;20271;-59
2023/07/06 01:54:39;;;;;;;8.73;8.33;;;;;;;21.64;100.00;21362.78;5073572;28;20227;-59
2023/07/06 01:57:17;;;;;;;9.60;8.48;;;;;;;21.65;100.00;22345.59;5073800;28;20220;-58
2023/07/06 01:59:49;;;;;;;8.50;7.70;;;;;;;21.62;100.00;22344.34;5073776;28;20554;-58
2023/07/06 02:02:19;;;;;;;8.60;8.20;;;;;;;21.69;100.00;26278.97;5073516;28;20225;-59
2023/07/06 02:04:47;;;;;;;9.02;8.32;;;;;;;21.71;100.00;29560.22;5074029;28;20700;-59
2023/07/06 02:07:20;;;;;;;8.90;8.40;;;;;;;21.71;100.00;31529.91;5073396;28;20181;-59
2023/07/06 02:09:48;;;;;;;9.00;8.20;;;;;;;21.77;100.00;35476.59;5073370;28;20211;-59
2023/07/06 02:12:15;;;;;;;9.33;8.53;;;;;;;21.85;100.00;37126.28;5073664;28;20184;-59
2023/07/06 02:14:42;;;;;;;8.23;7.77;;;;;;;21.86;100.00;42725.13;5073278;28;20223;-59
2023/07/06 02:17:09;;;;;;;11.60;10.53;;;;;;;21.83;100.00;65537.81;5073144;28;20188;-58
2023/07/06 02:19:38;;;;;;;22.10;17.20;;;;;;;21.96;100.00;63893.06;5073499;28;20656;-58
2023/07/06 02:22:05;;;;;;;15.05;11.88;;;;;;;21.87;100.00;56265.25;5073432;28;20553;-58
2023/07/06 02:24:32;;;;;;;13.43;10.90;;;;;;;21.84;100.00;52293.72;5073410;28;20184;-58
2023/07/06 02:26:59;;;;;;;10.98;10.30;;;;;;;22.03;100.00;49336.53;5073023;28;20188;-58
2023/07/06 02:29:26;;;;;;;26.65;16.20;;;;;;;22.02;100.00;37795.72;5073294;28;20555;-59
2023/07/06 02:31:53;;;;;;;17.98;15.90;;;;;;;21.96;100.00;31215.31;5072941;28;20200;-59
2023/07/06 02:34:24;;;;;;;28.37;21.47;;;;;;;21.89;100.00;27272.63;5073700;28;20284;-59
2023/07/06 02:36:53;;;;;;;41.97;20.73;;;;;;;21.98;100.00;22686.59;5073085;28;20189;-59
2023/07/06 02:39:24;;;;;;;30.50;19.83;;;;;;;21.88;100.00;15810.25;5072650;28;20208;-59
2023/07/06 02:41:52;;;;;;;44.33;21.50;;;;;;;21.88;100.00;10909.88;5073080;28;20660;-58
2023/07/06 02:44:20;;;;;;;33.50;21.10;;;;;;;21.92;100.00;8952.63;5073030;28;20674;-59
2023/07/06 02:46:47;;;;;;;37.60;21.35;;;;;;;21.92;100.00;6017.56;5072836;28;20188;-58
2023/07/06 02:49:14;;;;;;;41.20;21.10;;;;;;;21.81;100.00;5038.25;5072932;28;20177;-58
2023/07/06 02:51:41;;;;;;;43.47;20.67;;;;;;;21.65;100.00;1129.53;5072487;28;20275;-59
2023/07/06 02:54:13;;;;;;;33.22;21.15;;;;;;;21.72;100.00;-1472.00;5072499;28;20188;-59
2023/07/06 02:56:41;;;;;;;40.38;21.27;;;;;;;21.75;100.00;-1797.00;5072549;28;20208;-58
2023/07/06 02:59:08;;;;;;;35.85;21.65;;;;;;;21.64;100.00;-822.00;5072598;28;20236;-59
2023/07/06 03:01:35;;;;;;;37.53;19.90;;;;;;;21.71;100.00;804.66;5072298;28;20193;-58
2023/07/06 03:04:04;;;;;;;26.75;19.65;;;;;;;21.80;100.00;2432.63;5072346;28;20187;-59
2023/07/06 03:06:30;;;;;;;30.43;19.27;;;;;;;21.85;100.00;4712.97;5072534;28;20654;-58
2023/07/06 03:08:57;;;;;;;30.40;17.88;;;;;;;21.91;100.00;8952.34;5072234;28;20199;-59
2023/07/06 03:11:25;;;;;;;34.88;18.08;;;;;;;21.97;100.00;11238.34;5073020;28;20184;-58
2023/07/06 03:13:55;;;;;;;26.27;18.67;;;;;;;22.00;100.00;8627.84;5072442;28;20193;-58
2023/07/06 03:16:22;;;;;;;25.45;17.85;;;;;;;22.13;100.00;9609.69;5072509;28;20635;-59
2023/07/06 03:18:48;;;;;;;31.77;18.30;;;;;;;22.24;100.00;11244.91;5071982;28;20212;-59
2023/07/06 03:21:15;;;;;;;20.05;18.10;;;;;;;22.28;100.00;15822.56;5072104;28;20223;-59
2023/07/06 03:23:42;;;;;;;26.55;17.77;;;;;;;22.32;100.00;22373.38;5071987;28;20280;-59
2023/07/06 03:26:09;;;;;;;32.85;17.45;;;;;;;22.35;100.00;33538.53;5071452;28;20196;-59
2023/07/06 03:28:37;;;;;;;29.08;18.10;;;;;;;22.35;100.00;43420.81;5072259;28;20591;-59
2023/07/06 03:31:04;;;;;;;25.17;18.40;;;;;;;22.43;100.00;47387.91;5072181;28;20673;-59
2023/07/06 03:33:31;;;;;;;20.25;16.42;;;;;;;22.51;100.00;48055.28;5071870;28;20594;-58
2023/07/06 03:35:58;;;;;;;26.30;16.25;;;;;;;22.66;100.00;59324.06;5071862;28;20188;-60
2023/07/06 03:38:27;;;;;;;25.45;17.38;;;;;;;22.86;100.00;64987.75;5071805;28;20240;-58
2023/07/06 03:40:54;;;;;;;26.20;18.05;;;;;;;22.98;100.00;80322.38;5072061;28;20653;-58
2023/07/06 03:43:21;;;;;;;22.75;18.20;;;;;;;23.13;100.00;85689.34;5071638;28;20192;-59
2023/07/06 03:45:50;;;;;;;28.75;19.08;;;;;;;23.34;100.00;101141.81;5071867;28;20251;-59
2023/07/06 03:48:21;;;;;;;21.50;19.00;;;;;;;23.56;100.00;121068.44;5072020;28;20183;-59
2023/07/06 03:50:52;;;;;;;36.05;20.27;;;;;;;23.81;100.00;148821.28;5071847;28;20279;-58
2023/07/06 03:53:19;;;;;;;28.38;19.98;;;;;;;23.91;100.00;152051.69;5071669;28;20180;-59
2023/07/06 03:55:47;;;;;;;25.65;20.45;;;;;;;24.19;100.00;152120.69;5071947;28;20607;-59
2023/07/06 03:58:14;;;;;;;28.55;19.98;;;;;;;24.22;100.00;152128.34;5071779;28;20700;-58
2023/07/06 04:00:41;;;;;;;35.92;21.05;;;;;;;24.42;100.00;152179.41;5071523;28;20185;-59
2023/07/06 04:03:10;;;;;;;43.38;20.95;;;;;;;24.53;100.00;152207.47;5071873;28;20185;-60
2023/07/06 04:05:39;;;;;;;39.22;21.50;;;;;;;24.58;100.00;152220.25;5071770;28;20708;-60
2023/07/06 04:08:13;;;;;;;36.70;21.25;;;;;;;24.79;100.00;152273.91;5071740;28;20208;-59
2023/07/06 04:10:41;;;;;;;35.05;23.75;;;;;;;24.96;100.00;152317.38;5071637;28;20642;-59
2023/07/06 04:13:09;;;;;;;35.67;24.42;;;;;;;25.13;100.00;152359.53;5071433;28;20251;-59
2023/07/06 04:15:39;;;;;;;35.58;24.98;;;;;;;25.33;100.00;152410.63;5071730;28;20295;-60
2023/07/06 04:18:07;;;;;;;40.28;23.05;;;;;;;25.22;100.00;152381.25;5072135;28;20215;-59
2023/07/06 04:20:35;;;;;;;37.13;24.02;;;;;;;25.50;100.00;152451.56;5071340;28;20283;-59
2023/07/06 04:23:03;;;;;;;33.45;24.33;;;;;;;25.72;100.00;152509.09;5071661;28;20551;-59
2023/07/06 04:25:31;;;;;;;30.02;24.88;;;;;;;25.85;100.00;152542.31;5071591;28;20195;-59
2023/07/06 04:28:01;;;;;;;39.10;25.38;;;;;;;26.04;100.00;152588.34;5071295;28;20188;-59
2023/07/06 04:30:32;;;;;;;41.97;25.08;;;;;;;26.25;100.00;152642.09;5071287;28;20192;-58
2023/07/06 04:32:59;;;;;;;31.05;26.50;;;;;;;26.33;100.00;152662.53;5071221;28;20221;-60
2023/07/06 04:35:26;;;;;;;34.67;26.83;;;;;;;26.47;100.00;152697.06;5071459;28;20246;-59
2023/07/06 04:37:55;;;;;;;36.47;26.25;;;;;;;26.60;100.00;152731.59;5072141;28;20181;-60
2023/07/06 04:40:26;;;;;;;38.97;26.15;;;;;;;26.60;100.00;152730.31;5074984;28;20192;-59
2023/07/06 04:42:53;;;;;;;42.08;26.50;;;;;;;26.61;100.00;152732.84;5075333;28;20184;-60
2023/07/06 04:45:21;;;;;;;41.83;28.40;;;;;;;26.46;100.00;152695.78;5075175;28;20720;-59
2023/07/06 04:47:53;;;;;;;35.67;25.70;;;;;;;26.46;100.00;152695.78;5074871;28;20188;-58
2023/07/06 04:50:22;;;;;;;33.28;26.27;;;;;;;26.43;100.00;152686.84;5075243;28;20189;-58
2023/07/06 04:52:51;;;;;;;37.67;25.70;;;;;;;26.44;100.00;152690.66;5074788;28;20216;-59
2023/07/06 04:55:22;;;;;;;30.65;25.25;;;;;;;26.55;100.00;152718.81;5075860;28;20188;-59
2023/07/06 04:57:50;;;;;;;30.45;24.08;;;;;;;26.63;100.00;152739.25;5074905;28;20195;-59
2023/07/06 05:00:18;;;;;;;31.73;24.27;;;;;;;26.59;100.00;152727.75;5074891;28;20207;-59
2023/07/06 05:02:46;;;;;;;34.30;24.85;;;;;;;26.77;100.00;152775.09;5074515;28;20181;-59
2023/07/06 05:05:13;;;;;;;27.38;23.95;;;;;;;26.87;100.00;152799.41;5068429;28;20284;-56
2023/07/06 05:07:41;;;;;;;34.70;23.52;;;;;;;27.13;100.00;152865.94;5074510;28;20198;-58
2023/07/06 05:10:09;;;;;;;43.20;23.58;;;;;;;27.30;100.00;152908.13;5067165;28;20230;-59
2023/07/06 05:12:39;;;;;;;26.40;20.17;;;;;;;27.23;100.00;152891.53;5074293;28;20258;-57
2023/07/06 05:15:07;;;;;;;30.20;19.67;;;;;;;27.69;100.00;153006.72;5074288;28;20189;-58
2023/07/06 05:17:34;;;;;;;34.67;20.25;;;;;;;27.87;100.00;153052.78;5074179;28;20189;-58
2023/07/06 05:20:01;;;;;;;43.88;20.30;;;;;;;28.06;100.00;153100.13;5074078;28;20554;-58
2023/07/06 05:22:28;;;;;;;28.75;17.65;;;;;;;28.24;100.00;153146.25;5074285;28;20195;-57
2023/07/06 05:24:55;;;;;;;32.67;13.85;;;;;;;28.55;100.00;153225.66;5074078;28;20196;-57
2023/07/06 05:27:24;;;;;;;24.08;14.18;;;;;;;28.72;100.00;153266.66;5074400;28;20189;-59
2023/07/06 05:29:52;;;;;;;15.48;11.27;;;;;;;28.82;100.00;153292.25;5074517;28;20191;-59
2023/07/06 05:32:19;;;;;;;9.65;8.55;;;;;;;29.04;100.00;153349.88;5074078;28;20188;-59
2023/07/06 05:34:47;;;;;;;21.73;8.20;;;;;;;29.15;100.00;153375.53;5074111;28;20188;-58
2023/07/06 05:37:13;;;;;;;10.68;6.65;;;;;;;29.32;100.00;153420.38;5073713;28;20191;-58
2023/07/06 05:39:40;;;;;;;10.95;6.57;;;;;;;29.56;100.00;153480.59;5073614;28;20256;-57
2023/07/06 05:42:07;;;;;;;9.85;6.68;;;;;;;29.89;100.00;153565.19;5073704;28;20208;-57
2023/07/06 05:44:34;;;;;;;11.20;6.78;;;;;;;30.17;100.00;153634.41;5078791;28;20254;-58
2023/07/06 05:47:02;;;;;;;13.13;7.00;;;;;;;30.27;100.00;153660.03;5093772;28;20188;-59
2023/07/06 05:49:29;;;;;;;13.85;7.25;;;;;;;30.55;100.00;153731.88;5069955;28;20631;-60
2023/07/06 05:51:56;;;;;;;11.20;6.28;;;;;;;30.85;100.00;153808.75;5066886;28;20193;-60
2023/07/06 05:54:23;;;;;;;10.32;5.90;;;;;;;31.20;100.00;153897.28;5057309;28;20197;-59
2023/07/06 05:56:50;;;;;;;7.50;5.88;;;;;;;31.73;100.00;154030.75;5053345;28;20185;-59
2023/07/06 05:59:19;;;;;;;7.85;5.72;;;;;;;32.04;100.00;154110.25;5053233;28;20212;-59
2023/07/06 06:01:46;;;;;;;7.68;6.40;;;;;;;32.37;100.00;154192.47;5053366;28;20646;-59
2023/07/06 06:04:14;;;;;;;6.03;5.65;;;;;;;32.78;100.00;154297.72;5053162;28;20189;-59
2023/07/06 06:06:53;;;;;;;6.47;5.88;;;;;;;33.14;96.94;154387.66;5052947;28;20284;-59
2023/07/06 06:09:21;;;;;;;7.63;7.05;;;;;;;33.23;96.07;154410.78;5053364;28;20620;-59
2023/07/06 06:11:49;;;;;;;10.98;6.63;;;;;;;33.39;94.54;154451.84;5054984;28;20216;-61
2023/07/06 06:14:16;;;;;;;5.88;5.32;;;;;;;33.65;88.68;154518.69;5091511;28;20203;-59
2023/07/06 06:16:43;;;;;;;5.50;5.07;;;;;;;33.65;88.93;154518.69;5094743;28;20238;-63
2023/07/06 06:19:10;;;;;;;8.45;6.25;;;;;;;33.86;89.62;154572.56;5093090;28;20210;-62
2023/07/06 06:21:42;;;;;;;5.80;5.22;;;;;;;34.05;84.31;154618.81;5093155;28;20207;-61
2023/07/06 06:24:10;;;;;;;6.03;5.40;;;;;;;34.46;79.66;154724.19;5075071;28;20192;-63
2023/07/06 06:26:42;;;;;;;5.53;5.22;;;;;;;34.64;75.56;154769.16;5093014;28;20298;-62
2023/07/06 06:29:10;;;;;;;5.32;4.88;;;;;;;34.56;77.43;154749.91;5092852;28;20180;-62
2023/07/06 06:31:38;;;;;;;4.63;4.43;;;;;;;35.08;72.71;154881.03;5093022;28;20184;-64
2023/07/06 06:34:05;;;;;;;7.35;5.28;;;;;;;35.35;70.51;154950.47;5093126;28;20646;-62
2023/07/06 06:36:32;;;;;;;4.75;4.55;;;;;;;35.90;65.11;155089.38;5092978;28;20198;-62
2023/07/06 06:39:00;;;;;;;5.20;4.90;;;;;;;35.65;64.36;155026.34;5082492;28;20216;-65
2023/07/06 06:41:28;;;;;;;5.72;5.10;;;;;;;35.93;65.63;155098.38;5072758;28;20193;-64
2023/07/06 06:43:56;;;;;;;5.28;4.80;;;;;;;35.39;65.03;154960.78;5072935;28;20275;-62
2023/07/06 06:46:24;;;;;;;5.57;4.63;;;;;;;35.02;68.64;154865.59;5073012;28;20737;-63
2023/07/06 06:48:51;;;;;;;4.93;4.43;;;;;;;35.29;68.05;154936.34;5071378;28;20627;-63
2023/07/06 06:51:19;;;;;;;7.97;5.80;;;;;;;35.58;67.29;155009.63;5063193;28;20245;-63
2023/07/06 06:53:46;;;;;;;5.50;5.20;;;;;;;36.22;65.16;155171.72;5074497;28;20207;-64
2023/07/06 06:56:17;;;;;;;6.00;4.75;;;;;;;36.68;63.74;155287.50;5069717;28;20638;-64
2023/07/06 06:58:47;;;;;;;5.85;5.03;;;;;;;36.86;62.31;155335.13;5052519;28;20217;-64
2023/07/06 07:01:14;;;;;;;4.90;4.60;;;;;;;36.64;62.32;155278.50;5050927;28;20190;-63
2023/07/06 07:03:41;;;;;;;10.07;6.50;;;;;;;36.16;65.93;155157.56;5052133;28;20255;-63
2023/07/06 07:06:12;;;;;;;6.07;4.88;;;;;;;36.06;66.57;155130.53;5052409;28;20189;-63
2023/07/06 07:08:40;;;;;;;5.32;4.95;;;;;;;35.85;68.62;155077.81;5052489;28;20552;-62
2023/07/06 07:11:07;;;;;;;6.50;4.82;;;;;;;35.45;72.16;154974.91;5053607;28;20605;-62
2023/07/06 07:13:37;;;;;;;8.75;5.22;;;;;;;35.06;72.33;154877.16;5068766;28;20196;-64
2023/07/06 07:16:05;;;;;;;4.95;4.40;;;;;;;35.04;74.54;154870.75;5061803;28;20215;-64
2023/07/06 07:18:33;;;;;;;5.60;5.30;;;;;;;34.69;75.82;154783.38;5071172;28;20611;-64
2023/07/06 07:21:01;;;;;;;5.15;4.85;;;;;;;35.04;74.92;154872.03;5073502;28;20223;-64
2023/07/06 07:23:35;;;;;;;9.02;5.65;;;;;;;35.10;73.32;154886.16;5091302;28;20207;-68
2023/07/06 07:26:05;;;;;;;5.10;4.80;;;;;;;34.82;77.42;154816.78;5093021;28;20626;-68
2023/07/06 07:28:32;;;;;;;4.80;4.10;;;;;;;34.66;59.44;154775.66;5075391;28;20204;-66
2023/07/06 07:31:01;;;;;;;4.60;4.40;;;;;;;34.40;61.52;154708.81;5034376;28;20545;-65
2023/07/06 07:33:29;;;;;;;5.45;4.32;;;;;;;34.33;65.69;154690.84;5052278;28;20216;-67
2023/07/06 07:35:57;;;;;;;16.08;14.57;;;;;;;34.67;68.03;154776.97;5052033;28;20341;-62
2023/07/06 07:38:24;;;;;;;4.50;4.30;;;;;;;34.66;67.04;154775.66;5051775;28;20207;-68
2023/07/06 07:40:55;;;;;;;4.45;4.25;;;;;;;34.85;66.09;154823.19;5051393;28;20209;-70
2023/07/06 07:43:25;;;;;;;7.80;4.53;;;;;;;35.06;65.27;154875.88;5034004;28;20283;-69
2023/07/06 07:45:54;;;;;;;8.77;5.00;;;;;;;35.22;65.83;154917.09;5051479;28;20240;-68
2023/07/06 07:48:23;;;;;;;5.10;4.80;;;;;;;35.20;66.32;154911.91;5058503;28;20192;-68
2023/07/06 07:50:51;;;;;;;5.20;4.80;;;;;;;35.36;65.56;154951.75;5072280;28;20520;-68
2023/07/06 07:53:19;;;;;;;3.97;3.78;;;;;;;35.35;66.42;154949.22;5072006;28;20619;-68
2023/07/06 07:55:46;;;;;;;5.10;4.20;;;;;;;35.31;62.45;154940.19;5061516;28;20567;-66
2023/07/06 07:58:12;;;;;;;4.80;4.40;;;;;;;35.28;59.63;154932.47;5051499;28;20180;-67
2023/07/06 08:00:40;;;;;;;4.60;4.30;;;;;;;35.06;61.41;154875.88;5054593;28;20212;-68
2023/07/06 08:03:07;;;;;;;4.90;3.90;;;;;;;34.46;60.82;154722.94;5066240;28;20246;-68
2023/07/06 08:05:40;;;;;;;4.63;4.22;;;;;;;34.20;63.51;154658.72;5069033;28;20235;-69
2023/07/06 08:08:07;;;;;;;4.97;4.55;;;;;;;34.50;66.22;154734.47;5069132;28;20189;-70
2023/07/06 08:10:46;;;;;;;4.50;4.10;;;;;;;34.91;65.88;154837.34;5068752;28;20196;-68
2023/07/06 08:13:13;;;;;;;6.47;4.25;;;;;;;35.57;65.31;155005.75;5072084;28;20180;-67
2023/07/06 08:15:40;;;;;;;4.82;4.20;;;;;;;35.74;60.27;155049.50;5075550;28;20185;-68
2023/07/06 08:18:11;;;;;;;5.15;4.60;;;;;;;36.30;59.62;155191.00;5075199;28;20184;-70
2023/07/06 08:20:39;;;;;;;4.95;4.47;;;;;;;36.59;56.08;155265.63;5075323;28;20204;-63
2023/07/06 08:23:10;;;;;;;5.28;3.97;;;;;;;36.70;53.57;155292.66;5075099;28;20225;-62
2023/07/06 08:25:37;;;;;;;8.05;4.30;;;;;;;36.21;57.35;155169.13;5075291;28;20184;-60
2023/07/06 08:28:05;;;;;;;4.05;3.95;;;;;;;35.30;56.45;154937.66;5075381;28;20185;-61
2023/07/06 08:30:32;;;;;;;6.72;3.63;;;;;;;35.56;55.91;155003.19;5074995;28;20186;-61
2023/07/06 08:33:01;;;;;;;5.47;3.70;;;;;;;35.91;55.84;155091.94;5075052;28;20608;-61
2023/07/06 08:35:29;;;;;;;3.75;3.55;;;;;;;35.25;53.49;154924.78;5075220;28;20184;-61
2023/07/06 08:37:57;;;;;;;4.03;3.78;;;;;;;35.04;53.92;154872.03;5074833;28;20196;-61
2023/07/06 08:40:29;;;;;;;4.53;4.13;;;;;;;34.74;57.71;154796.22;5075184;28;20660;-63
2023/07/06 08:42:56;;;;;;;4.82;4.22;;;;;;;34.60;57.25;154760.19;5075370;28;20181;-61
2023/07/06 08:45:25;;;;;;;6.88;3.88;;;;;;;34.58;54.02;154755.06;5074578;28;20232;-61
2023/07/06 08:47:54;;;;;;;3.75;3.45;;;;;;;34.57;53.97;154752.50;5074570;28;20196;-60
2023/07/06 08:50:26;;;;;;;10.23;4.15;;;;;;;34.50;57.27;154734.47;5074672;28;20216;-62
2023/07/06 08:52:53;;;;;;;4.20;4.00;;;;;;;33.97;56.27;154599.56;5074725;28;20185;-60
2023/07/06 08:55:24;;;;;;;7.28;6.78;;;;;;;34.33;57.88;154690.84;5074300;28;20220;-61
2023/07/06 08:57:52;;;;;;;4.47;4.18;;;;;;;34.80;61.65;154810.31;5074448;28;20200;-61
2023/07/06 09:00:22;;;;;;;4.60;4.28;;;;;;;35.70;54.41;155040.50;5074152;28;20234;-60
2023/07/06 09:02:51;;;;;;;9.98;4.40;;;;;;;36.06;53.65;155131.81;5074528;28;20189;-61
2023/07/06 09:05:20;;;;;;;4.72;4.35;;;;;;;36.39;49.29;155215.44;5074759;28;20185;-61
2023/07/06 09:07:48;;;;;;;4.05;3.85;;;;;;;36.92;49.16;155349.28;5074413;28;20242;-64
2023/07/06 09:10:20;;;;;;;4.45;4.30;;;;;;;37.23;48.75;155429.06;5074644;28;20217;-61
2023/07/06 09:12:50;;;;;;;4.57;4.38;;;;;;;37.24;49.76;155431.66;5074881;28;20562;-64
2023/07/06 09:15:21;;;;;;;4.30;3.92;;;;;;;36.96;49.98;155360.81;5074706;28;20681;-62
2023/07/06 09:17:51;;;;;;;5.70;4.50;;;;;;;36.94;47.86;155355.69;5075297;28;20559;-62
2023/07/06 09:20:20;;;;;;;4.30;4.10;;;;;;;36.79;45.80;155317.13;5074945;28;20674;-61
2023/07/06 09:22:48;;;;;;;4.47;3.80;;;;;;;36.91;47.75;155346.69;5074408;28;20195;-62
2023/07/06 09:25:17;;;;;;;4.47;4.18;;;;;;;37.01;49.93;155372.41;5073383;28;20188;-61
2023/07/06 09:27:49;;;;;;;4.80;4.40;;;;;;;37.11;51.12;155396.91;5074500;28;20670;-61
2023/07/06 09:30:29;;;;;;;6.05;3.58;;;;;;;37.16;49.87;155411.06;5074330;28;20201;-60
2023/07/06 09:33:03;;;;;;;4.75;4.32;;;;;;;37.39;48.10;155470.22;5073854;28;20204;-60
2023/07/06 09:35:30;;;;;;;3.72;3.60;;;;;;;37.34;46.80;155456.09;5054773;28;20201;-61
2023/07/06 09:37:58;;;;;;;4.95;4.68;;;;;;;37.11;47.00;155398.19;5053985;28;20185;-62
2023/07/06 09:40:30;;;;;;;4.63;4.25;;;;;;;37.20;48.71;155421.34;5052193;28;20292;-63
2023/07/06 09:42:58;;;;;;;4.53;4.10;;;;;;;37.46;47.04;155488.28;5053357;28;20238;-61
2023/07/06 09:45:28;;;;;;;4.63;4.43;;;;;;;37.24;46.15;155431.66;5053468;28;20740;-61
2023/07/06 09:47:57;;;;;;;4.53;4.18;;;;;;;37.38;47.87;155466.41;5064096;28;20585;-60
2023/07/06 09:50:32;;;;;;;4.00;3.83;;;;;;;38.14;48.18;155659.53;5054072;28;20194;-60
2023/07/06 09:53:00;;;;;;;4.65;4.30;;;;;;;38.81;44.28;155830.81;5063395;28;20234;-61
2023/07/06 09:55:30;;;;;;;4.07;3.88;;;;;;;39.12;42.74;155909.44;5071070;28;20276;-61
2023/07/06 09:58:00;;;;;;;4.28;4.07;;;;;;;39.47;41.34;155998.31;5073247;28;20208;-61
2023/07/06 10:00:34;;;;;;;4.40;4.13;;;;;;;39.49;43.00;156004.78;5071955;28;20201;-61
2023/07/06 10:03:13;;;;;;;4.20;4.10;;;;;;;39.63;42.20;156040.88;5072174;28;20577;-62
2023/07/06 10:05:47;;;;;;;5.13;4.45;;;;;;;39.62;43.48;156037.00;5073886;28;20269;-61
2023/07/06 10:08:22;;;;;;;5.00;4.70;;;;;;;39.34;41.16;155964.88;5073693;28;20634;-60
2023/07/06 10:11:05;;;;;;;5.32;4.32;;;;;;;39.33;42.74;155963.59;5073128;28;20276;-61
2023/07/06 10:13:38;;;;;;;4.22;3.92;;;;;;;39.19;42.84;155927.44;5072909;28;20246;-61
2023/07/06 10:16:21;;;;;;;4.70;3.85;;;;;;;38.00;41.60;155624.78;5072915;28;20177;-61
2023/07/06 10:18:56;;;;;;;4.35;4.03;;;;;;;37.83;44.09;155580.97;5073302;28;20180;-64
2023/07/06 10:21:32;;;;;;;4.18;3.80;;;;;;;36.99;44.87;155367.28;5072921;28;20693;-62
2023/07/06 10:24:07;;;;;;;10.68;4.93;;;;;;;37.61;46.96;155524.31;5072911;28;20188;-61
2023/07/06 10:26:35;;;;;;;4.10;3.67;;;;;;;37.42;43.98;155478.00;5072999;28;20211;-60
2023/07/06 10:29:09;;;;;;;9.10;4.82;;;;;;;37.82;45.60;155578.38;5072678;28;20181;-62
2023/07/06 10:31:42;;;;;;;5.43;4.97;;;;;;;37.79;42.85;155571.97;5073382;28;20185;-61
2023/07/06 10:34:15;;;;;;;4.68;4.47;;;;;;;37.83;42.32;155580.97;5072854;28;20212;-61
2023/07/06 10:36:43;;;;;;;4.35;3.95;;;;;;;37.60;42.19;155521.78;5072692;28;20185;-62
2023/07/06 10:39:34;;;;;;;4.10;4.00;;;;;;;37.69;41.83;155546.22;5072855;28;20642;-62
2023/07/06 10:42:03;;;;;;;3.70;3.50;;;;;;;37.65;42.52;155535.91;5072658;28;20624;-63
2023/07/06 10:44:51;;;;;;;4.18;4.00;;;;;;;37.72;42.71;155552.66;5072399;28;20231;-62
2023/07/06 10:47:44;;;;;;;8.10;4.70;;;;;;;38.04;44.63;155633.78;5072984;28;20202;-60
2023/07/06 10:50:23;;;;;;;3.75;3.65;;;;;;;38.28;44.44;155696.84;5072445;28;20657;-62
2023/07/06 10:53:01;;;;;;;4.38;4.07;;;;;;;38.05;45.38;155637.66;5065937;28;20299;-61
2023/07/06 10:55:34;;;;;;;5.97;3.90;;;;;;;38.01;44.89;155627.38;5063328;28;20279;-62
2023/07/06 10:58:24;;;;;;;5.25;4.00;;;;;;;37.69;46.59;155544.91;5069195;28;20254;-62
2023/07/06 11:00:54;;;;;;;4.65;4.35;;;;;;;37.05;46.44;155382.72;5065864;28;20269;-61
2023/07/06 11:03:28;;;;;;;4.80;4.50;;;;;;;36.82;50.00;155324.81;5053799;28;20201;-62
2023/07/06 11:06:00;;;;;;;7.63;4.63;;;;;;;36.85;50.25;155331.25;5052162;28;20201;-61
2023/07/06 11:09:07;;;;;;;5.10;4.90;;;;;;;36.65;48.48;155279.78;5051984;28;20193;-63
2023/07/06 11:11:36;;;;;;;4.82;4.53;;;;;;;36.73;50.57;155300.38;5052217;28;20203;-61
2023/07/06 11:14:31;;;;;;;4.97;4.47;;;;;;;36.61;48.78;155272.09;5051792;28;20194;-60
2023/07/06 11:17:06;;;;;;;5.43;4.90;;;;;;;36.65;49.16;155281.09;5052071;28;20276;-61
2023/07/06 11:19:37;;;;;;;4.38;4.18;;;;;;;36.44;52.18;155228.31;5052261;28;20567;-62
2023/07/06 11:22:09;;;;;;;4.78;4.57;;;;;;;36.05;52.67;155127.94;5068281;28;20218;-62
2023/07/06 11:24:41;;;;;;;8.23;5.10;;;;;;;35.66;55.23;155030.22;5072069;28;20375;-60
2023/07/06 11:27:22;;;;;;;7.25;4.90;;;;;;;35.72;55.17;155044.38;5071598;28;20189;-61
2023/07/06 11:29:49;;;;;;;5.95;5.50;;;;;;;35.65;52.26;155027.66;5072343;28;20181;-62
2023/07/06 11:32:28;;;;;;;16.10;5.88;;;;;;;35.79;54.34;155061.06;5071996;28;20192;-61